sensor_id;sensor_type;location;lat;lon;timestamp;P1;durP1;ratioP1;P2;durP2;ratioP2
41468;SDS011;27206;47.032;15.484;2023-09-19T00:00:20;16.30;;;6.97;;
41468;SDS011;27206;47.032;15.484;2023-09-19T00:02:56;16.40;;;6.40;;
41468;SDS011;27206;47.032;15.484;2023-09-19T00:05:27;13.07;;;6.75;;
41468;SDS011;27206;47.032;15.484;2023-09-19T00:07:55;13.52;;;6.50;;
41468;SDS011;27206;47.032;15.484;2023-09-19T00:10:25;10.23;;;6.63;;
41468;SDS011;27206;47.032;15.484;2023-09-19T00:12:56;13.15;;;6.88;;
41468;SDS011;27206;47.032;15.484;2023-09-19T00:15:24;11.82;;;7.18;;
41468;SDS011;27206;47.032;15.484;2023-09-19T00:17:53;12.43;;;7.20;;
41468;SDS011;27206;47.032;15.484;2023-09-19T00:20:19;9.93;;;6.10;;
41468;SDS011;27206;47.032;15.484;2023-09-19T00:22:48;11.70;;;6.25;;
41468;SDS011;27206;47.032;15.484;2023-09-19T00:25:15;10.73;;;6.40;;
41468;SDS011;27206;47.032;15.484;2023-09-19T00:27:41;10.63;;;6.20;;
41468;SDS011;27206;47.032;15.484;2023-09-19T00:30:08;10.00;;;5.97;;
41468;SDS011;27206;47.032;15.484;2023-09-19T00:32:39;13.13;;;7.27;;
41468;SDS011;27206;47.032;15.484;2023-09-19T00:35:05;11.25;;;6.47;;
41468;SDS011;27206;47.032;15.484;2023-09-19T00:37:33;15.82;;;6.20;;
41468;SDS011;27206;47.032;15.484;2023-09-19T00:39:59;11.23;;;5.80;;
41468;SDS011;27206;47.032;15.484;2023-09-19T00:42:24;11.48;;;5.72;;
41468;SDS011;27206;47.032;15.484;2023-09-19T00:44:51;10.40;;;5.47;;
41468;SDS011;27206;47.032;15.484;2023-09-19T00:47:17;10.10;;;5.20;;
41468;SDS011;27206;47.032;15.484;2023-09-19T00:49:44;12.82;;;5.10;;
41468;SDS011;27206;47.032;15.484;2023-09-19T00:52:17;10.82;;;4.93;;
41468;SDS011;27206;47.032;15.484;2023-09-19T00:54:46;11.32;;;5.10;;
41468;SDS011;27206;47.032;15.484;2023-09-19T00:57:13;15.05;;;5.82;;
41468;SDS011;27206;47.032;15.484;2023-09-19T00:59:40;9.57;;;5.13;;
41468;SDS011;27206;47.032;15.484;2023-09-19T01:02:07;11.98;;;5.28;;
41468;SDS011;27206;47.032;15.484;2023-09-19T01:04:33;11.45;;;4.85;;
41468;SDS011;27206;47.032;15.484;2023-09-19T01:06:59;8.15;;;4.70;;
41468;SDS011;27206;47.032;15.484;2023-09-19T01:09:25;11.18;;;5.32;;
41468;SDS011;27206;47.032;15.484;2023-09-19T01:11:53;10.65;;;5.07;;
41468;SDS011;27206;47.032;15.484;2023-09-19T01:17:13;10.88;;;4.90;;
41468;SDS011;27206;47.032;15.484;2023-09-19T01:22:25;11.13;;;5.13;;
41468;SDS011;27206;47.032;15.484;2023-09-19T01:30:40;10.90;;;4.75;;
41468;SDS011;27206;47.032;15.484;2023-09-19T01:33:11;7.95;;;4.68;;
41468;SDS011;27206;47.032;15.484;2023-09-19T01:35:38;9.50;;;5.05;;
41468;SDS011;27206;47.032;15.484;2023-09-19T01:38:04;11.68;;;4.97;;
41468;SDS011;27206;47.032;15.484;2023-09-19T01:40:34;11.30;;;4.35;;
41468;SDS011;27206;47.032;15.484;2023-09-19T01:46:02;12.18;;;5.03;;
41468;SDS011;27206;47.032;15.484;2023-09-19T01:48:48;9.07;;;4.47;;
41468;SDS011;27206;47.032;15.484;2023-09-19T01:51:32;12.32;;;4.32;;
41468;SDS011;27206;47.032;15.484;2023-09-19T01:54:18;7.25;;;3.70;;
41468;SDS011;27206;47.032;15.484;2023-09-19T01:57:15;5.60;;;3.55;;
41468;SDS011;27206;47.032;15.484;2023-09-19T01:59:38;5.65;;;3.22;;
41468;SDS011;27206;47.032;15.484;2023-09-19T02:02:10;10.35;;;4.20;;
41468;SDS011;27206;47.032;15.484;2023-09-19T02:04:37;8.38;;;3.97;;
41468;SDS011;27206;47.032;15.484;2023-09-19T02:07:02;7.93;;;3.88;;
41468;SDS011;27206;47.032;15.484;2023-09-19T02:09:30;7.53;;;3.40;;
41468;SDS011;27206;47.032;15.484;2023-09-19T02:11:56;6.53;;;3.47;;
41468;SDS011;27206;47.032;15.484;2023-09-19T02:14:22;10.43;;;3.78;;
41468;SDS011;27206;47.032;15.484;2023-09-19T02:16:47;8.00;;;3.58;;
41468;SDS011;27206;47.032;15.484;2023-09-19T02:19:14;11.63;;;3.50;;
41468;SDS011;27206;47.032;15.484;2023-09-19T02:21:40;8.98;;;3.45;;
41468;SDS011;27206;47.032;15.484;2023-09-19T02:24:06;7.78;;;3.00;;
41468;SDS011;27206;47.032;15.484;2023-09-19T02:26:33;9.85;;;3.30;;
41468;SDS011;27206;47.032;15.484;2023-09-19T02:29:00;7.90;;;3.15;;
41468;SDS011;27206;47.032;15.484;2023-09-19T02:31:30;7.72;;;3.30;;
41468;SDS011;27206;47.032;15.484;2023-09-19T02:33:56;7.40;;;3.17;;
41468;SDS011;27206;47.032;15.484;2023-09-19T02:36:21;9.70;;;3.75;;
41468;SDS011;27206;47.032;15.484;2023-09-19T02:38:48;6.28;;;3.28;;
41468;SDS011;27206;47.032;15.484;2023-09-19T02:41:14;7.35;;;3.40;;
41468;SDS011;27206;47.032;15.484;2023-09-19T02:43:40;7.40;;;2.70;;
41468;SDS011;27206;47.032;15.484;2023-09-19T02:46:07;8.23;;;3.30;;
41468;SDS011;27206;47.032;15.484;2023-09-19T02:48:34;7.63;;;3.00;;
41468;SDS011;27206;47.032;15.484;2023-09-19T02:51:01;7.50;;;2.58;;
41468;SDS011;27206;47.032;15.484;2023-09-19T02:53:28;8.43;;;2.83;;
41468;SDS011;27206;47.032;15.484;2023-09-19T02:55:55;5.45;;;2.00;;
41468;SDS011;27206;47.032;15.484;2023-09-19T02:58:21;6.78;;;2.15;;
41468;SDS011;27206;47.032;15.484;2023-09-19T03:00:48;5.45;;;1.98;;
41468;SDS011;27206;47.032;15.484;2023-09-19T03:03:15;6.25;;;2.15;;
41468;SDS011;27206;47.032;15.484;2023-09-19T03:05:44;4.35;;;2.35;;
41468;SDS011;27206;47.032;15.484;2023-09-19T03:08:12;8.20;;;2.20;;
41468;SDS011;27206;47.032;15.484;2023-09-19T03:10:42;5.47;;;2.10;;
41468;SDS011;27206;47.032;15.484;2023-09-19T03:13:08;5.30;;;2.00;;
41468;SDS011;27206;47.032;15.484;2023-09-19T03:15:35;5.43;;;2.50;;
41468;SDS011;27206;47.032;15.484;2023-09-19T03:18:04;4.15;;;2.00;;
41468;SDS011;27206;47.032;15.484;2023-09-19T03:20:30;4.63;;;2.35;;
41468;SDS011;27206;47.032;15.484;2023-09-19T03:22:55;5.60;;;1.90;;
41468;SDS011;27206;47.032;15.484;2023-09-19T03:25:22;4.78;;;1.92;;
41468;SDS011;27206;47.032;15.484;2023-09-19T03:27:49;8.38;;;2.22;;
41468;SDS011;27206;47.032;15.484;2023-09-19T03:30:15;6.45;;;2.45;;
41468;SDS011;27206;47.032;15.484;2023-09-19T03:32:47;6.63;;;2.40;;
41468;SDS011;27206;47.032;15.484;2023-09-19T03:35:15;4.88;;;2.20;;
41468;SDS011;27206;47.032;15.484;2023-09-19T03:37:42;4.88;;;2.00;;
41468;SDS011;27206;47.032;15.484;2023-09-19T03:40:08;4.53;;;1.60;;
41468;SDS011;27206;47.032;15.484;2023-09-19T03:42:37;4.07;;;1.70;;
41468;SDS011;27206;47.032;15.484;2023-09-19T03:45:04;4.10;;;1.30;;
41468;SDS011;27206;47.032;15.484;2023-09-19T03:47:31;3.80;;;1.52;;
41468;SDS011;27206;47.032;15.484;2023-09-19T03:49:56;3.15;;;1.80;;
41468;SDS011;27206;47.032;15.484;2023-09-19T03:52:22;2.63;;;1.27;;
41468;SDS011;27206;47.032;15.484;2023-09-19T03:54:48;2.83;;;1.13;;
41468;SDS011;27206;47.032;15.484;2023-09-19T03:57:14;3.58;;;1.40;;
41468;SDS011;27206;47.032;15.484;2023-09-19T03:59:42;3.58;;;1.17;;
41468;SDS011;27206;47.032;15.484;2023-09-19T04:02:11;5.43;;;1.38;;
41468;SDS011;27206;47.032;15.484;2023-09-19T04:04:37;3.05;;;1.30;;
41468;SDS011;27206;47.032;15.484;2023-09-19T04:07:02;2.85;;;1.17;;
41468;SDS011;27206;47.032;15.484;2023-09-19T04:09:28;4.07;;;1.30;;
41468;SDS011;27206;47.032;15.484;2023-09-19T04:11:53;3.72;;;1.30;;
41468;SDS011;27206;47.032;15.484;2023-09-19T04:14:19;4.15;;;1.63;;
41468;SDS011;27206;47.032;15.484;2023-09-19T04:16:45;3.65;;;1.30;;
41468;SDS011;27206;47.032;15.484;2023-09-19T04:19:10;6.05;;;1.50;;
41468;SDS011;27206;47.032;15.484;2023-09-19T04:21:36;3.50;;;1.50;;
41468;SDS011;27206;47.032;15.484;2023-09-19T04:24:02;4.10;;;1.23;;
41468;SDS011;27206;47.032;15.484;2023-09-19T04:26:27;2.70;;;1.27;;
41468;SDS011;27206;47.032;15.484;2023-09-19T04:28:53;4.13;;;1.50;;
41468;SDS011;27206;47.032;15.484;2023-09-19T04:31:19;4.25;;;1.60;;
41468;SDS011;27206;47.032;15.484;2023-09-19T04:33:45;3.83;;;1.63;;
41468;SDS011;27206;47.032;15.484;2023-09-19T04:36:11;4.57;;;1.70;;
41468;SDS011;27206;47.032;15.484;2023-09-19T04:38:38;3.83;;;1.40;;
41468;SDS011;27206;47.032;15.484;2023-09-19T04:41:03;3.42;;;1.33;;
41468;SDS011;27206;47.032;15.484;2023-09-19T04:43:29;7.68;;;1.98;;
41468;SDS011;27206;47.032;15.484;2023-09-19T04:45:55;6.97;;;2.25;;
41468;SDS011;27206;47.032;15.484;2023-09-19T04:48:21;5.45;;;2.10;;
41468;SDS011;27206;47.032;15.484;2023-09-19T04:50:50;5.47;;;2.53;;
41468;SDS011;27206;47.032;15.484;2023-09-19T04:53:17;5.82;;;2.30;;
41468;SDS011;27206;47.032;15.484;2023-09-19T04:55:45;4.60;;;2.08;;
41468;SDS011;27206;47.032;15.484;2023-09-19T04:58:14;4.07;;;1.75;;
41468;SDS011;27206;47.032;15.484;2023-09-19T05:00:40;5.40;;;2.30;;
41468;SDS011;27206;47.032;15.484;2023-09-19T05:03:06;5.03;;;2.28;;
41468;SDS011;27206;47.032;15.484;2023-09-19T05:05:33;7.50;;;1.98;;
41468;SDS011;27206;47.032;15.484;2023-09-19T05:07:59;7.22;;;1.85;;
41468;SDS011;27206;47.032;15.484;2023-09-19T05:10:25;5.43;;;2.30;;
41468;SDS011;27206;47.032;15.484;2023-09-19T05:12:54;6.82;;;2.20;;
41468;SDS011;27206;47.032;15.484;2023-09-19T05:15:20;5.13;;;2.50;;
41468;SDS011;27206;47.032;15.484;2023-09-19T05:17:52;6.30;;;2.40;;
41468;SDS011;27206;47.032;15.484;2023-09-19T05:20:20;5.43;;;2.10;;
41468;SDS011;27206;47.032;15.484;2023-09-19T05:23:01;5.45;;;2.20;;
41468;SDS011;27206;47.032;15.484;2023-09-19T05:25:27;9.82;;;2.25;;
41468;SDS011;27206;47.032;15.484;2023-09-19T05:27:57;5.28;;;2.00;;
41468;SDS011;27206;47.032;15.484;2023-09-19T05:30:28;5.20;;;2.20;;
41468;SDS011;27206;47.032;15.484;2023-09-19T05:32:54;7.95;;;2.17;;
41468;SDS011;27206;47.032;15.484;2023-09-19T05:35:21;5.50;;;1.95;;
41468;SDS011;27206;47.032;15.484;2023-09-19T05:37:47;5.95;;;2.28;;
41468;SDS011;27206;47.032;15.484;2023-09-19T05:40:16;5.07;;;2.33;;
41468;SDS011;27206;47.032;15.484;2023-09-19T05:42:42;4.38;;;2.15;;
41468;SDS011;27206;47.032;15.484;2023-09-19T05:45:09;5.60;;;2.28;;
41468;SDS011;27206;47.032;15.484;2023-09-19T05:47:41;5.28;;;2.20;;
41468;SDS011;27206;47.032;15.484;2023-09-19T05:50:08;7.13;;;2.80;;
41468;SDS011;27206;47.032;15.484;2023-09-19T05:52:35;3.53;;;1.95;;
41468;SDS011;27206;47.032;15.484;2023-09-19T05:55:03;5.13;;;2.50;;
41468;SDS011;27206;47.032;15.484;2023-09-19T05:57:30;5.90;;;2.38;;
41468;SDS011;27206;47.032;15.484;2023-09-19T05:59:56;7.30;;;2.60;;
41468;SDS011;27206;47.032;15.484;2023-09-19T06:02:21;9.00;;;2.80;;
41468;SDS011;27206;47.032;15.484;2023-09-19T06:04:47;5.00;;;2.45;;
41468;SDS011;27206;47.032;15.484;2023-09-19T06:07:13;6.63;;;2.50;;
41468;SDS011;27206;47.032;15.484;2023-09-19T06:09:38;11.50;;;3.72;;
41468;SDS011;27206;47.032;15.484;2023-09-19T06:12:05;5.95;;;3.38;;
41468;SDS011;27206;47.032;15.484;2023-09-19T06:14:31;10.63;;;4.20;;
41468;SDS011;27206;47.032;15.484;2023-09-19T06:16:57;8.35;;;3.58;;
41468;SDS011;27206;47.032;15.484;2023-09-19T06:19:22;10.40;;;3.47;;
41468;SDS011;27206;47.032;15.484;2023-09-19T06:21:51;6.93;;;3.42;;
41468;SDS011;27206;47.032;15.484;2023-09-19T06:24:18;7.50;;;3.70;;
41468;SDS011;27206;47.032;15.484;2023-09-19T06:26:44;12.27;;;4.00;;
41468;SDS011;27206;47.032;15.484;2023-09-19T06:29:10;5.68;;;3.42;;
41468;SDS011;27206;47.032;15.484;2023-09-19T06:31:36;8.50;;;4.00;;
41468;SDS011;27206;47.032;15.484;2023-09-19T06:34:04;9.02;;;3.88;;
41468;SDS011;27206;47.032;15.484;2023-09-19T06:36:29;6.30;;;3.72;;
41468;SDS011;27206;47.032;15.484;2023-09-19T06:38:55;8.32;;;4.63;;
41468;SDS011;27206;47.032;15.484;2023-09-19T06:41:21;5.65;;;3.92;;
41468;SDS011;27206;47.032;15.484;2023-09-19T06:43:49;7.35;;;4.35;;
41468;SDS011;27206;47.032;15.484;2023-09-19T06:46:18;9.35;;;3.97;;
41468;SDS011;27206;47.032;15.484;2023-09-19T06:48:44;8.38;;;3.97;;
41468;SDS011;27206;47.032;15.484;2023-09-19T06:51:09;7.68;;;4.10;;
41468;SDS011;27206;47.032;15.484;2023-09-19T06:53:35;10.27;;;3.00;;
41468;SDS011;27206;47.032;15.484;2023-09-19T06:56:01;5.90;;;3.25;;
41468;SDS011;27206;47.032;15.484;2023-09-19T06:58:28;10.02;;;3.13;;
41468;SDS011;27206;47.032;15.484;2023-09-19T07:00:53;5.55;;;2.58;;
41468;SDS011;27206;47.032;15.484;2023-09-19T07:03:19;6.50;;;1.85;;
41468;SDS011;27206;47.032;15.484;2023-09-19T07:05:47;4.25;;;2.10;;
41468;SDS011;27206;47.032;15.484;2023-09-19T07:08:13;6.82;;;2.67;;
41468;SDS011;27206;47.032;15.484;2023-09-19T07:10:39;7.30;;;2.42;;
41468;SDS011;27206;47.032;15.484;2023-09-19T07:13:06;5.97;;;2.33;;
41468;SDS011;27206;47.032;15.484;2023-09-19T07:15:35;5.35;;;1.95;;
41468;SDS011;27206;47.032;15.484;2023-09-19T07:18:04;4.88;;;2.33;;
41468;SDS011;27206;47.032;15.484;2023-09-19T07:20:31;6.95;;;1.80;;
41468;SDS011;27206;47.032;15.484;2023-09-19T07:23:00;7.78;;;2.08;;
41468;SDS011;27206;47.032;15.484;2023-09-19T07:25:29;5.00;;;2.10;;
41468;SDS011;27206;47.032;15.484;2023-09-19T07:27:56;4.03;;;2.22;;
41468;SDS011;27206;47.032;15.484;2023-09-19T07:30:25;5.40;;;2.17;;
41468;SDS011;27206;47.032;15.484;2023-09-19T07:32:51;4.45;;;2.22;;
41468;SDS011;27206;47.032;15.484;2023-09-19T07:35:17;4.85;;;1.92;;
41468;SDS011;27206;47.032;15.484;2023-09-19T07:37:45;4.45;;;2.03;;
41468;SDS011;27206;47.032;15.484;2023-09-19T07:40:15;6.78;;;2.00;;
41468;SDS011;27206;47.032;15.484;2023-09-19T07:42:41;4.05;;;1.88;;
41468;SDS011;27206;47.032;15.484;2023-09-19T07:45:07;6.35;;;2.13;;
41468;SDS011;27206;47.032;15.484;2023-09-19T07:47:34;5.40;;;2.13;;
41468;SDS011;27206;47.032;15.484;2023-09-19T07:50:01;5.88;;;2.25;;
41468;SDS011;27206;47.032;15.484;2023-09-19T07:52:28;5.18;;;2.83;;
41468;SDS011;27206;47.032;15.484;2023-09-19T07:54:54;5.13;;;3.10;;
41468;SDS011;27206;47.032;15.484;2023-09-19T07:57:20;8.75;;;3.67;;
41468;SDS011;27206;47.032;15.484;2023-09-19T07:59:45;8.57;;;4.03;;
41468;SDS011;27206;47.032;15.484;2023-09-19T08:02:11;5.88;;;3.50;;
41468;SDS011;27206;47.032;15.484;2023-09-19T08:04:43;4.47;;;3.20;;
41468;SDS011;27206;47.032;15.484;2023-09-19T08:07:11;6.57;;;3.03;;
41468;SDS011;27206;47.032;15.484;2023-09-19T08:09:40;6.05;;;3.08;;
41468;SDS011;27206;47.032;15.484;2023-09-19T08:12:06;6.32;;;2.95;;
41468;SDS011;27206;47.032;15.484;2023-09-19T08:14:35;4.90;;;3.15;;
41468;SDS011;27206;47.032;15.484;2023-09-19T08:17:02;6.88;;;2.83;;
41468;SDS011;27206;47.032;15.484;2023-09-19T08:19:30;7.95;;;2.92;;
41468;SDS011;27206;47.032;15.484;2023-09-19T08:22:00;4.88;;;2.83;;
41468;SDS011;27206;47.032;15.484;2023-09-19T08:24:29;5.93;;;2.67;;
41468;SDS011;27206;47.032;15.484;2023-09-19T08:26:55;6.22;;;3.03;;
41468;SDS011;27206;47.032;15.484;2023-09-19T08:29:24;6.07;;;3.17;;
41468;SDS011;27206;47.032;15.484;2023-09-19T08:31:59;4.93;;;3.10;;
41468;SDS011;27206;47.032;15.484;2023-09-19T08:34:24;7.07;;;2.90;;
41468;SDS011;27206;47.032;15.484;2023-09-19T08:36:51;4.85;;;2.40;;
41468;SDS011;27206;47.032;15.484;2023-09-19T08:39:23;4.75;;;2.78;;
41468;SDS011;27206;47.032;15.484;2023-09-19T08:41:56;5.35;;;2.60;;
41468;SDS011;27206;47.032;15.484;2023-09-19T08:44:26;4.32;;;2.50;;
41468;SDS011;27206;47.032;15.484;2023-09-19T08:46:58;6.07;;;2.83;;
41468;SDS011;27206;47.032;15.484;2023-09-19T08:52:25;7.97;;;2.65;;
41468;SDS011;27206;47.032;15.484;2023-09-19T08:54:54;4.20;;;2.33;;
41468;SDS011;27206;47.032;15.484;2023-09-19T08:57:27;4.45;;;2.33;;
41468;SDS011;27206;47.032;15.484;2023-09-19T08:59:54;3.30;;;2.00;;
41468;SDS011;27206;47.032;15.484;2023-09-19T09:02:21;3.03;;;1.65;;
41468;SDS011;27206;47.032;15.484;2023-09-19T09:04:48;5.22;;;2.30;;
41468;SDS011;27206;47.032;15.484;2023-09-19T09:07:15;2.70;;;1.48;;
41468;SDS011;27206;47.032;15.484;2023-09-19T09:09:44;4.65;;;1.90;;
41468;SDS011;27206;47.032;15.484;2023-09-19T09:12:11;3.60;;;1.65;;
41468;SDS011;27206;47.032;15.484;2023-09-19T09:14:38;3.95;;;1.70;;
41468;SDS011;27206;47.032;15.484;2023-09-19T09:17:05;4.00;;;1.77;;
41468;SDS011;27206;47.032;15.484;2023-09-19T09:19:30;4.68;;;1.60;;
41468;SDS011;27206;47.032;15.484;2023-09-19T09:22:09;3.08;;;1.65;;
41468;SDS011;27206;47.032;15.484;2023-09-19T09:24:36;2.45;;;1.35;;
41468;SDS011;27206;47.032;15.484;2023-09-19T09:27:04;7.63;;;2.00;;
41468;SDS011;27206;47.032;15.484;2023-09-19T09:29:46;4.30;;;1.70;;
41468;SDS011;27206;47.032;15.484;2023-09-19T09:32:18;2.72;;;1.38;;
41468;SDS011;27206;47.032;15.484;2023-09-19T09:34:58;4.88;;;1.23;;
41468;SDS011;27206;47.032;15.484;2023-09-19T09:37:25;3.53;;;1.40;;
41468;SDS011;27206;47.032;15.484;2023-09-19T09:39:53;2.65;;;1.40;;
41468;SDS011;27206;47.032;15.484;2023-09-19T09:42:31;4.80;;;1.23;;
41468;SDS011;27206;47.032;15.484;2023-09-19T09:45:14;2.70;;;1.50;;
41468;SDS011;27206;47.032;15.484;2023-09-19T09:48:02;3.47;;;1.40;;
41468;SDS011;27206;47.032;15.484;2023-09-19T09:50:30;3.78;;;1.20;;
41468;SDS011;27206;47.032;15.484;2023-09-19T09:53:24;3.08;;;1.20;;
41468;SDS011;27206;47.032;15.484;2023-09-19T09:58:27;3.47;;;1.58;;
41468;SDS011;27206;47.032;15.484;2023-09-19T10:00:57;3.83;;;1.35;;
41468;SDS011;27206;47.032;15.484;2023-09-19T10:03:58;3.97;;;1.63;;
41468;SDS011;27206;47.032;15.484;2023-09-19T10:06:21;4.80;;;1.30;;
41468;SDS011;27206;47.032;15.484;2023-09-19T10:09:06;2.90;;;0.90;;
41468;SDS011;27206;47.032;15.484;2023-09-19T10:11:38;2.65;;;1.13;;
41468;SDS011;27206;47.032;15.484;2023-09-19T10:14:12;2.28;;;0.90;;
41468;SDS011;27206;47.032;15.484;2023-09-19T10:16:41;3.00;;;1.17;;
41468;SDS011;27206;47.032;15.484;2023-09-19T10:19:14;1.65;;;0.90;;
41468;SDS011;27206;47.032;15.484;2023-09-19T10:21:55;1.83;;;1.00;;
41468;SDS011;27206;47.032;15.484;2023-09-19T10:24:22;3.25;;;0.90;;
41468;SDS011;27206;47.032;15.484;2023-09-19T10:26:51;1.73;;;0.82;;
41468;SDS011;27206;47.032;15.484;2023-09-19T10:29:19;1.83;;;0.85;;
41468;SDS011;27206;47.032;15.484;2023-09-19T10:31:48;2.28;;;0.95;;
41468;SDS011;27206;47.032;15.484;2023-09-19T10:34:15;1.98;;;0.98;;
41468;SDS011;27206;47.032;15.484;2023-09-19T10:36:45;2.75;;;1.00;;
41468;SDS011;27206;47.032;15.484;2023-09-19T10:39:13;2.65;;;0.82;;
41468;SDS011;27206;47.032;15.484;2023-09-19T10:41:44;3.08;;;0.90;;
41468;SDS011;27206;47.032;15.484;2023-09-19T10:44:28;3.28;;;0.80;;
41468;SDS011;27206;47.032;15.484;2023-09-19T10:46:57;3.40;;;0.85;;
41468;SDS011;27206;47.032;15.484;2023-09-19T10:49:24;2.22;;;1.00;;
41468;SDS011;27206;47.032;15.484;2023-09-19T10:51:52;2.83;;;0.80;;
41468;SDS011;27206;47.032;15.484;2023-09-19T10:56:51;3.42;;;1.00;;
41468;SDS011;27206;47.032;15.484;2023-09-19T10:59:19;3.30;;;1.00;;
41468;SDS011;27206;47.032;15.484;2023-09-19T11:01:46;1.80;;;0.88;;
41468;SDS011;27206;47.032;15.484;2023-09-19T11:04:28;4.05;;;1.30;;
41468;SDS011;27206;47.032;15.484;2023-09-19T11:07:08;3.15;;;0.93;;
41468;SDS011;27206;47.032;15.484;2023-09-19T11:12:11;2.38;;;0.90;;
41468;SDS011;27206;47.032;15.484;2023-09-19T11:14:38;2.72;;;0.80;;
41468;SDS011;27206;47.032;15.484;2023-09-19T11:30:33;2.83;;;0.90;;
41468;SDS011;27206;47.032;15.484;2023-09-19T11:36:05;2.47;;;1.00;;
41468;SDS011;27206;47.032;15.484;2023-09-19T11:46:26;2.58;;;1.10;;
41468;SDS011;27206;47.032;15.484;2023-09-19T11:48:53;3.78;;;1.00;;
41468;SDS011;27206;47.032;15.484;2023-09-19T11:51:20;2.63;;;0.95;;
41468;SDS011;27206;47.032;15.484;2023-09-19T11:53:57;3.05;;;1.02;;
41468;SDS011;27206;47.032;15.484;2023-09-19T11:56:27;3.63;;;1.08;;
41468;SDS011;27206;47.032;15.484;2023-09-19T11:58:53;2.33;;;1.05;;
41468;SDS011;27206;47.032;15.484;2023-09-19T12:01:21;1.95;;;0.70;;
41468;SDS011;27206;47.032;15.484;2023-09-19T12:03:54;1.65;;;0.80;;
41468;SDS011;27206;47.032;15.484;2023-09-19T12:06:28;3.17;;;0.88;;
41468;SDS011;27206;47.032;15.484;2023-09-19T12:08:55;1.75;;;0.80;;
41468;SDS011;27206;47.032;15.484;2023-09-19T12:11:22;2.08;;;0.80;;
41468;SDS011;27206;47.032;15.484;2023-09-19T12:13:48;2.60;;;0.90;;
41468;SDS011;27206;47.032;15.484;2023-09-19T12:16:15;1.50;;;0.73;;
41468;SDS011;27206;47.032;15.484;2023-09-19T12:18:43;1.92;;;0.85;;
41468;SDS011;27206;47.032;15.484;2023-09-19T12:26:55;2.13;;;0.93;;
41468;SDS011;27206;47.032;15.484;2023-09-19T12:29:30;1.70;;;0.82;;
41468;SDS011;27206;47.032;15.484;2023-09-19T12:31:57;3.80;;;0.98;;
41468;SDS011;27206;47.032;15.484;2023-09-19T12:37:03;1.90;;;0.73;;
41468;SDS011;27206;47.032;15.484;2023-09-19T12:39:37;1.30;;;0.90;;
41468;SDS011;27206;47.032;15.484;2023-09-19T12:42:03;3.25;;;0.90;;
41468;SDS011;27206;47.032;15.484;2023-09-19T12:44:33;2.67;;;0.90;;
41468;SDS011;27206;47.032;15.484;2023-09-19T12:47:07;0.65;;;0.60;;
41468;SDS011;27206;47.032;15.484;2023-09-19T12:50:04;1.80;;;0.80;;
41468;SDS011;27206;47.032;15.484;2023-09-19T12:52:36;3.35;;;1.00;;
41468;SDS011;27206;47.032;15.484;2023-09-19T12:55:03;1.88;;;0.70;;
41468;SDS011;27206;47.032;15.484;2023-09-19T12:57:31;1.45;;;0.75;;
41468;SDS011;27206;47.032;15.484;2023-09-19T13:00:00;2.20;;;0.80;;
41468;SDS011;27206;47.032;15.484;2023-09-19T13:02:31;2.60;;;0.90;;
41468;SDS011;27206;47.032;15.484;2023-09-19T13:04:57;2.72;;;0.90;;
41468;SDS011;27206;47.032;15.484;2023-09-19T13:07:47;2.47;;;1.00;;
41468;SDS011;27206;47.032;15.484;2023-09-19T13:10:14;1.48;;;0.82;;
41468;SDS011;27206;47.032;15.484;2023-09-19T13:12:41;1.42;;;0.75;;
41468;SDS011;27206;47.032;15.484;2023-09-19T13:15:13;3.10;;;0.98;;
41468;SDS011;27206;47.032;15.484;2023-09-19T13:17:48;1.45;;;0.90;;
41468;SDS011;27206;47.032;15.484;2023-09-19T13:20:24;2.63;;;0.88;;
41468;SDS011;27206;47.032;15.484;2023-09-19T13:22:52;1.73;;;1.10;;
41468;SDS011;27206;47.032;15.484;2023-09-19T13:25:19;2.78;;;1.10;;
41468;SDS011;27206;47.032;15.484;2023-09-19T13:27:47;2.85;;;1.00;;
41468;SDS011;27206;47.032;15.484;2023-09-19T13:30:17;1.52;;;0.80;;
41468;SDS011;27206;47.032;15.484;2023-09-19T13:32:43;3.50;;;1.02;;
41468;SDS011;27206;47.032;15.484;2023-09-19T13:35:12;2.03;;;0.90;;
41468;SDS011;27206;47.032;15.484;2023-09-19T13:37:38;4.75;;;1.00;;
41468;SDS011;27206;47.032;15.484;2023-09-19T13:40:11;4.22;;;1.17;;
41468;SDS011;27206;47.032;15.484;2023-09-19T13:42:39;5.72;;;1.02;;
41468;SDS011;27206;47.032;15.484;2023-09-19T13:45:05;2.85;;;1.02;;
41468;SDS011;27206;47.032;15.484;2023-09-19T13:47:31;2.40;;;1.05;;
41468;SDS011;27206;47.032;15.484;2023-09-19T13:49:58;3.90;;;1.00;;
41468;SDS011;27206;47.032;15.484;2023-09-19T13:52:25;4.13;;;1.20;;
41468;SDS011;27206;47.032;15.484;2023-09-19T13:54:56;2.65;;;1.08;;
41468;SDS011;27206;47.032;15.484;2023-09-19T13:57:23;3.08;;;1.17;;
41468;SDS011;27206;47.032;15.484;2023-09-19T13:59:49;2.25;;;1.30;;
41468;SDS011;27206;47.032;15.484;2023-09-19T14:02:14;3.28;;;1.05;;
41468;SDS011;27206;47.032;15.484;2023-09-19T14:04:43;2.83;;;1.08;;
41468;SDS011;27206;47.032;15.484;2023-09-19T14:07:09;2.58;;;1.13;;
41468;SDS011;27206;47.032;15.484;2023-09-19T14:09:36;3.00;;;0.98;;
41468;SDS011;27206;47.032;15.484;2023-09-19T14:12:03;2.00;;;0.98;;
41468;SDS011;27206;47.032;15.484;2023-09-19T14:14:28;2.78;;;1.20;;
41468;SDS011;27206;47.032;15.484;2023-09-19T14:16:54;1.70;;;1.02;;
41468;SDS011;27206;47.032;15.484;2023-09-19T14:19:20;2.33;;;1.17;;
41468;SDS011;27206;47.032;15.484;2023-09-19T14:21:46;2.55;;;1.15;;
41468;SDS011;27206;47.032;15.484;2023-09-19T14:24:16;2.53;;;1.00;;
41468;SDS011;27206;47.032;15.484;2023-09-19T14:26:42;3.55;;;1.10;;
41468;SDS011;27206;47.032;15.484;2023-09-19T14:29:08;2.95;;;1.02;;
41468;SDS011;27206;47.032;15.484;2023-09-19T14:31:36;4.15;;;1.17;;
41468;SDS011;27206;47.032;15.484;2023-09-19T14:34:05;2.55;;;1.20;;
41468;SDS011;27206;47.032;15.484;2023-09-19T14:36:31;2.47;;;1.02;;
41468;SDS011;27206;47.032;15.484;2023-09-19T14:38:58;2.70;;;0.80;;
41468;SDS011;27206;47.032;15.484;2023-09-19T14:41:24;2.08;;;1.00;;
41468;SDS011;27206;47.032;15.484;2023-09-19T14:43:53;2.38;;;0.98;;
41468;SDS011;27206;47.032;15.484;2023-09-19T14:46:20;2.47;;;1.23;;
41468;SDS011;27206;47.032;15.484;2023-09-19T14:48:46;2.63;;;1.00;;
41468;SDS011;27206;47.032;15.484;2023-09-19T14:51:12;3.33;;;1.10;;
41468;SDS011;27206;47.032;15.484;2023-09-19T14:53:38;5.53;;;2.38;;
41468;SDS011;27206;47.032;15.484;2023-09-19T14:56:07;4.03;;;1.50;;
41468;SDS011;27206;47.032;15.484;2023-09-19T14:58:34;3.50;;;1.20;;
41468;SDS011;27206;47.032;15.484;2023-09-19T15:01:04;3.90;;;1.88;;
41468;SDS011;27206;47.032;15.484;2023-09-19T15:03:32;4.28;;;1.50;;
41468;SDS011;27206;47.032;15.484;2023-09-19T15:05:59;4.45;;;1.98;;
41468;SDS011;27206;47.032;15.484;2023-09-19T15:08:25;2.70;;;1.75;;
41468;SDS011;27206;47.032;15.484;2023-09-19T15:10:51;4.68;;;2.50;;
41468;SDS011;27206;47.032;15.484;2023-09-19T15:13:18;8.00;;;3.10;;
41468;SDS011;27206;47.032;15.484;2023-09-19T15:15:44;8.30;;;1.13;;
41468;SDS011;27206;47.032;15.484;2023-09-19T15:18:12;2.28;;;0.85;;
41468;SDS011;27206;47.032;15.484;2023-09-19T15:20:42;1.85;;;1.00;;
41468;SDS011;27206;47.032;15.484;2023-09-19T15:23:08;4.47;;;1.08;;
41468;SDS011;27206;47.032;15.484;2023-09-19T15:25:35;1.60;;;0.90;;
41468;SDS011;27206;47.032;15.484;2023-09-19T15:28:00;2.55;;;1.00;;
41468;SDS011;27206;47.032;15.484;2023-09-19T15:30:36;1.50;;;0.93;;
41468;SDS011;27206;47.032;15.484;2023-09-19T15:33:03;2.15;;;1.20;;
41468;SDS011;27206;47.032;15.484;2023-09-19T15:35:29;2.30;;;1.05;;
41468;SDS011;27206;47.032;15.484;2023-09-19T15:37:54;3.17;;;1.10;;